createdAt,value
2018-06-21T00:01:31.933Z,60.79
2018-06-21T00:04:00.638Z,60.56
2018-06-21T00:06:29.629Z,61.33
2018-06-21T00:08:58.555Z,60.64
2018-06-21T00:11:27.514Z,61.22
2018-06-21T00:13:56.114Z,61.10
2018-06-21T00:16:24.779Z,61.88
2018-06-21T00:18:53.722Z,61.81
2018-06-21T00:21:22.700Z,61.61
2018-06-21T00:23:52.219Z,62.12
2018-06-21T00:26:20.845Z,62.12
2018-06-21T00:28:49.759Z,62.42
2018-06-21T00:31:18.583Z,62.11
2018-06-21T00:33:47.563Z,62.00
2018-06-21T00:36:16.401Z,61.91
2018-06-21T00:38:45.322Z,61.63
2018-06-21T00:41:14.537Z,61.42
2018-06-21T00:43:43.960Z,62.11
2018-06-21T00:46:12.527Z,61.58
2018-06-21T00:48:42.133Z,61.56
2018-06-21T00:51:12.508Z,62.06
2018-06-21T00:53:41.780Z,61.86
2018-06-21T00:56:14.692Z,61.78
2018-06-21T00:58:44.299Z,61.67
2018-06-21T01:01:13.230Z,62.02
2018-06-21T01:03:42.117Z,61.76
2018-06-21T01:06:17.280Z,62.22
2018-06-21T01:08:46.173Z,61.85
2018-06-21T01:11:15.040Z,62.21
2018-06-21T01:13:44.237Z,61.87
2018-06-21T01:16:12.915Z,62.25
2018-06-21T01:18:41.487Z,62.41
2018-06-21T01:21:10.077Z,61.61
2018-06-21T01:23:38.743Z,62.10
2018-06-21T01:26:07.682Z,62.40
2018-06-21T01:28:36.358Z,62.65
2018-06-21T01:31:05.253Z,62.87
2018-06-21T01:33:34.234Z,62.43
2018-06-21T01:36:03.150Z,62.30
2018-06-21T01:38:38.132Z,63.24
2018-06-21T01:41:07.081Z,62.60
2018-06-21T01:43:35.662Z,62.98
2018-06-21T01:46:04.306Z,63.33
2018-06-21T01:48:34.461Z,63.55
2018-06-21T01:51:04.271Z,63.57
2018-06-21T01:53:34.785Z,64.60
2018-06-21T01:56:03.350Z,64.47
2018-06-21T01:58:31.945Z,63.79
2018-06-21T02:01:00.582Z,64.62
2018-06-21T02:03:30.021Z,64.12
2018-06-21T02:06:00.368Z,63.89
2018-06-21T02:08:30.786Z,64.08
2018-06-21T02:10:59.666Z,63.56
2018-06-21T02:13:30.638Z,64.13
2018-06-21T02:15:59.940Z,64.29
2018-06-21T02:18:29.978Z,64.97
2018-06-21T02:20:59.055Z,64.47
2018-06-21T02:23:28.477Z,65.42
2018-06-21T02:25:58.336Z,65.15
2018-06-21T02:28:28.800Z,65.53
2018-06-21T02:30:58.601Z,64.86
2018-06-21T02:33:29.210Z,65.15
2018-06-21T02:35:58.374Z,65.22
2018-06-21T02:38:28.480Z,66.36
2018-06-21T02:40:57.380Z,66.16
2018-06-21T02:43:25.982Z,65.45
2018-06-21T02:45:55.045Z,65.71
2018-06-21T02:48:23.628Z,66.27
2018-06-21T02:50:52.247Z,66.02
2018-06-21T02:53:21.125Z,65.24
2018-06-21T02:55:50.319Z,65.93
2018-06-21T02:58:19.259Z,66.11
2018-06-21T03:00:47.925Z,65.95
2018-06-21T03:03:17.690Z,65.98
2018-06-21T03:05:47.415Z,65.79
2018-06-21T03:08:16.300Z,65.61
2018-06-21T03:10:45.232Z,65.94
2018-06-21T03:13:14.143Z,66.50
2018-06-21T03:15:43.021Z,66.08
2018-06-21T03:18:11.933Z,66.26
2018-06-21T03:20:40.766Z,66.19
2018-06-21T03:23:09.667Z,65.91
2018-06-21T03:25:38.633Z,65.62
2018-06-21T03:28:07.513Z,65.79
2018-06-21T03:30:36.126Z,65.30
2018-06-21T03:33:04.725Z,65.68
2018-06-21T03:35:33.337Z,65.48
2018-06-21T03:38:01.981Z,65.12
2018-06-21T03:40:31.013Z,65.34
2018-06-21T03:42:59.708Z,65.51
2018-06-21T03:45:28.329Z,65.85
2018-06-21T03:47:57.270Z,66.40
2018-06-21T03:50:27.281Z,66.21
2018-06-21T03:52:56.773Z,65.88
2018-06-21T03:55:25.387Z,65.47
2018-06-21T03:57:54.000Z,65.84
2018-06-21T04:00:23.509Z,64.93
2018-06-21T04:02:52.204Z,66.05
2018-06-21T04:05:21.168Z,65.35
2018-06-21T04:07:55.956Z,65.64
2018-06-21T04:10:24.959Z,64.98
2018-06-21T04:12:53.650Z,65.82
2018-06-21T04:15:22.237Z,64.83
2018-06-21T04:17:50.923Z,65.17
2018-06-21T04:20:19.746Z,65.09
2018-06-21T04:22:48.412Z,65.04
2018-06-21T04:25:17.023Z,65.68
2018-06-21T04:27:45.724Z,65.40
2018-06-21T04:30:14.849Z,64.98
2018-06-21T04:32:43.759Z,65.15
2018-06-21T04:35:12.507Z,65.33
2018-06-21T04:40:09.013Z,64.47
2018-06-21T04:42:39.147Z,64.55
2018-06-21T04:45:09.028Z,64.60
2018-06-21T04:47:38.960Z,64.59
2018-06-21T04:50:07.941Z,63.97
2018-06-21T04:52:38.498Z,64.34
2018-06-21T04:55:07.195Z,64.92
2018-06-21T04:57:36.122Z,64.23
2018-06-21T05:00:04.847Z,64.46
2018-06-21T05:02:33.795Z,63.51
2018-06-21T05:05:02.674Z,63.24
2018-06-21T05:07:31.314Z,63.44
2018-06-21T05:09:59.932Z,63.35
2018-06-21T05:12:28.643Z,62.98
2018-06-21T05:14:57.567Z,63.30
2018-06-21T05:17:26.534Z,63.80
2018-06-21T05:19:55.465Z,62.43
2018-06-21T05:22:24.086Z,62.73
2018-06-21T05:24:53.306Z,62.16
2018-06-21T05:27:22.557Z,62.28
2018-06-21T05:29:51.168Z,62.25
2018-06-21T05:32:20.433Z,61.57
2018-06-21T05:34:49.744Z,61.25
2018-06-21T05:37:18.496Z,62.23
2018-06-21T05:39:47.121Z,61.69
2018-06-21T05:42:16.009Z,61.46
2018-06-21T05:44:44.612Z,61.32
2018-06-21T05:47:13.580Z,61.49
2018-06-21T05:49:42.476Z,61.30
2018-06-21T05:52:11.352Z,61.08
2018-06-21T05:54:40.233Z,61.23
2018-06-21T05:57:08.854Z,60.88
2018-06-21T05:59:37.450Z,60.72
2018-06-21T06:02:06.073Z,59.66
2018-06-21T06:04:34.687Z,60.66
2018-06-21T06:07:03.412Z,60.02
2018-06-21T06:09:32.383Z,60.05
2018-06-21T06:12:01.558Z,59.77
2018-06-21T06:14:30.597Z,59.29
2018-06-21T06:17:00.771Z,60.29
2018-06-21T06:21:56.987Z,59.85
2018-06-21T06:24:25.641Z,59.95
2018-06-21T06:26:54.266Z,59.58
2018-06-21T06:29:22.997Z,60.34
2018-06-21T06:31:51.626Z,58.97
2018-06-21T06:34:20.570Z,59.19
2018-06-21T06:36:49.200Z,59.15
2018-06-21T06:39:21.870Z,59.41
2018-06-21T06:41:51.553Z,58.57
2018-06-21T06:44:20.338Z,59.12
2018-06-21T06:46:48.989Z,58.67
2018-06-21T06:49:17.631Z,58.95
2018-06-21T06:51:46.416Z,59.39
2018-06-21T06:54:14.974Z,58.28
2018-06-21T06:56:43.628Z,57.07
2018-06-21T06:59:12.591Z,57.12
2018-06-21T07:01:42.437Z,57.16
2018-06-21T07:04:11.086Z,56.56
2018-06-21T07:06:39.749Z,56.44
2018-06-21T07:09:09.369Z,55.93
2018-06-21T07:11:38.105Z,54.98
2018-06-21T07:14:08.070Z,54.58
2018-06-21T07:16:38.517Z,54.05
2018-06-21T07:19:07.388Z,55.04
2018-06-21T07:21:38.680Z,54.51
2018-06-21T07:24:07.994Z,54.20
2018-06-21T07:26:37.361Z,54.52
2018-06-21T07:29:06.262Z,53.68
2018-06-21T07:31:35.345Z,53.44
2018-06-21T07:34:04.038Z,52.20
2018-06-21T07:36:32.924Z,52.19
2018-06-21T07:39:01.647Z,52.04
2018-06-21T07:41:30.610Z,51.54
2018-06-21T07:43:59.256Z,51.42
2018-06-21T07:46:27.934Z,51.09
2018-06-21T07:48:56.688Z,50.60
2018-06-21T07:51:25.317Z,50.22
2018-06-21T07:53:53.973Z,51.03
2018-06-21T07:56:22.932Z,51.73
2018-06-21T07:58:51.565Z,50.43
2018-06-21T08:01:20.508Z,48.55
2018-06-21T08:03:49.144Z,49.09
2018-06-21T08:06:18.196Z,48.70
2018-06-21T08:08:47.225Z,48.48
2018-06-21T08:11:16.289Z,47.39
2018-06-21T08:13:44.980Z,47.38
2018-06-21T08:16:14.393Z,48.34
2018-06-21T08:18:42.957Z,49.03
2018-06-21T08:21:11.780Z,48.90
2018-06-21T08:23:40.387Z,47.60
2018-06-21T08:26:09.117Z,47.70
2018-06-21T08:28:37.838Z,46.79
2018-06-21T08:31:06.466Z,46.27
2018-06-21T08:33:35.159Z,46.43
2018-06-21T08:36:04.072Z,46.20
2018-06-21T08:38:33.073Z,46.30
2018-06-21T08:41:02.116Z,46.45
2018-06-21T08:43:31.036Z,45.69
2018-06-21T08:45:59.979Z,45.62
2018-06-21T08:48:29.009Z,45.70
2018-06-21T08:50:57.632Z,46.05
2018-06-21T08:53:26.307Z,45.82
2018-06-21T08:55:55.245Z,44.20
2018-06-21T08:58:23.979Z,44.02
2018-06-21T09:00:52.975Z,44.99
2018-06-21T09:03:22.150Z,44.96
2018-06-21T09:05:51.196Z,46.11
2018-06-21T09:08:19.813Z,43.23
2018-06-21T09:10:48.398Z,43.46
2018-06-21T09:13:17.328Z,43.00
2018-06-21T09:15:45.985Z,43.34
2018-06-21T09:18:14.608Z,42.84
2018-06-21T09:20:43.200Z,41.74
2018-06-21T09:23:11.853Z,42.59
2018-06-21T09:25:40.722Z,41.78
2018-06-21T09:28:09.317Z,42.66
2018-06-21T09:30:37.972Z,41.90
2018-06-21T09:33:06.804Z,41.47
2018-06-21T09:35:36.231Z,40.24
2018-06-21T09:38:11.559Z,41.08
2018-06-21T09:40:45.610Z,41.24
2018-06-21T09:43:19.598Z,41.09
2018-06-21T09:45:53.548Z,41.81
2018-06-21T09:48:27.642Z,41.44
2018-06-21T09:50:56.580Z,41.56
2018-06-21T09:53:25.654Z,41.42
2018-06-21T09:55:55.163Z,42.81
2018-06-21T09:58:23.818Z,40.57
2018-06-21T10:00:57.956Z,40.92
2018-06-21T10:03:26.540Z,40.25
2018-06-21T10:05:55.645Z,38.80
2018-06-21T10:08:24.892Z,38.13
2018-06-21T10:10:53.529Z,37.33
2018-06-21T10:13:22.279Z,38.33
2018-06-21T10:15:51.337Z,37.59
2018-06-21T10:18:19.888Z,38.36
2018-06-21T10:20:48.543Z,38.23
2018-06-21T10:23:17.416Z,39.01
2018-06-21T10:25:46.019Z,38.37
2018-06-21T10:28:14.968Z,38.80
2018-06-21T10:30:43.931Z,38.33
2018-06-21T10:33:12.573Z,38.62
2018-06-21T10:35:41.815Z,40.02
2018-06-21T10:38:10.433Z,42.34
2018-06-21T10:40:39.402Z,43.79
2018-06-21T10:43:08.485Z,45.38
2018-06-21T10:45:37.378Z,46.35
2018-06-21T10:48:06.728Z,46.82
2018-06-21T10:50:35.646Z,47.52
2018-06-21T10:53:04.566Z,48.51
2018-06-21T10:55:33.515Z,49.68
2018-06-21T10:58:02.447Z,52.81
2018-06-21T11:00:31.370Z,55.35
2018-06-21T11:02:59.956Z,58.20
2018-06-21T11:05:28.556Z,59.53
2018-06-21T11:07:57.143Z,60.26
2018-06-21T11:10:25.718Z,58.69
2018-06-21T11:12:54.330Z,59.36
2018-06-21T11:15:23.080Z,56.24
2018-06-21T11:17:52.059Z,57.42
2018-06-21T11:20:20.676Z,55.27
2018-06-21T11:22:49.294Z,56.73
2018-06-21T11:25:18.008Z,57.05
2018-06-21T11:27:46.709Z,53.21
2018-06-21T11:30:15.593Z,52.85
2018-06-21T11:32:44.233Z,53.13
2018-06-21T11:35:13.015Z,53.35
2018-06-21T11:37:41.721Z,53.11
2018-06-21T11:40:10.651Z,51.91
2018-06-21T11:42:39.613Z,48.65
2018-06-21T11:45:08.247Z,45.46
2018-06-21T11:47:37.426Z,44.59
2018-06-21T11:50:06.233Z,45.46
2018-06-21T11:52:34.827Z,45.09
2018-06-21T11:55:03.447Z,46.17
2018-06-21T11:57:32.637Z,48.02
2018-06-21T12:00:01.854Z,48.69
2018-06-21T12:02:30.577Z,49.53
2018-06-21T12:04:59.574Z,51.56
2018-06-21T12:07:28.179Z,51.29
2018-06-21T12:09:56.947Z,52.07
2018-06-21T12:12:25.598Z,53.83
2018-06-21T12:14:56.144Z,54.78
2018-06-21T12:17:25.052Z,55.06
2018-06-21T12:19:53.702Z,55.35
2018-06-21T12:22:22.316Z,56.95
2018-06-21T12:24:51.727Z,57.07
2018-06-21T12:27:20.327Z,57.68
2018-06-21T12:29:48.975Z,57.49
2018-06-21T12:32:20.065Z,59.25
2018-06-21T12:34:48.701Z,59.41
2018-06-21T12:37:17.629Z,60.37
2018-06-21T12:39:46.229Z,60.95
2018-06-21T12:42:14.878Z,62.25
2018-06-21T12:44:44.303Z,63.58
2018-06-21T12:47:12.894Z,64.89
2018-06-21T12:49:41.946Z,65.21
2018-06-21T12:52:11.051Z,67.98
2018-06-21T12:54:40.002Z,66.78
2018-06-21T12:57:09.069Z,68.98
2018-06-21T12:59:38.236Z,68.65
2018-06-21T13:02:07.923Z,66.86
2018-06-21T13:04:36.558Z,69.35
2018-06-21T13:07:05.451Z,70.65
2018-06-21T13:09:45.102Z,70.41
2018-06-21T13:12:28.540Z,69.51
2018-06-21T13:14:57.435Z,69.77
2018-06-21T13:17:27.022Z,69.28
2018-06-21T13:19:56.685Z,69.15
2018-06-21T13:22:27.402Z,66.93
2018-06-21T13:24:56.075Z,65.63
2018-06-21T13:27:24.921Z,65.61
2018-06-21T13:29:53.841Z,63.45
2018-06-21T13:32:22.509Z,55.35
2018-06-21T13:34:51.242Z,43.70
2018-06-21T13:37:20.228Z,40.13
2018-06-21T13:39:49.490Z,42.54
2018-06-21T13:42:18.448Z,47.24
2018-06-21T13:44:47.432Z,48.02
2018-06-21T13:47:16.261Z,54.51
2018-06-21T13:49:44.917Z,58.11
2018-06-21T13:52:13.562Z,62.36
2018-06-21T13:54:42.574Z,65.21
2018-06-21T13:57:11.512Z,64.92
2018-06-21T13:59:40.199Z,66.13
2018-06-21T14:02:08.868Z,63.63
2018-06-21T14:04:38.082Z,63.19
2018-06-21T14:07:06.762Z,60.49
2018-06-21T14:09:36.020Z,54.37
2018-06-21T14:12:04.906Z,53.07
2018-06-21T14:14:33.596Z,52.55
2018-06-21T14:17:02.361Z,53.86
2018-06-21T14:19:31.099Z,53.13
2018-06-21T14:22:00.278Z,51.61
2018-06-21T14:24:29.181Z,52.65
2018-06-21T14:26:57.849Z,52.33
2018-06-21T14:29:26.661Z,50.25
2018-06-21T14:31:58.217Z,50.56
2018-06-21T14:34:26.870Z,47.58
2018-06-21T14:36:55.509Z,47.43
2018-06-21T14:39:24.147Z,46.03
2018-06-21T14:41:52.784Z,45.10
2018-06-21T14:44:21.485Z,44.41
2018-06-21T14:46:50.148Z,44.84
2018-06-21T14:49:18.758Z,43.02
2018-06-21T14:51:47.497Z,43.14
2018-06-21T14:54:16.225Z,41.66
2018-06-21T14:56:45.943Z,41.93
2018-06-21T14:59:14.748Z,41.22
2018-06-21T15:01:43.745Z,40.33
2018-06-21T15:04:12.404Z,40.39
2018-06-21T15:06:42.471Z,41.39
2018-06-21T15:09:12.827Z,42.09
2018-06-21T15:11:41.585Z,41.53
2018-06-21T15:14:10.174Z,41.29
2018-06-21T15:16:39.282Z,41.81
2018-06-21T15:19:07.973Z,41.29
2018-06-21T15:21:36.956Z,41.51
2018-06-21T15:24:06.470Z,42.40
2018-06-21T15:26:35.149Z,42.28
2018-06-21T15:29:03.830Z,43.57
2018-06-21T15:31:32.685Z,43.11
2018-06-21T15:34:03.080Z,43.09
2018-06-21T15:36:33.198Z,43.63
2018-06-21T15:39:12.500Z,44.70
2018-06-21T15:41:41.314Z,43.44
2018-06-21T15:44:11.030Z,43.48
2018-06-21T15:46:39.923Z,41.85
2018-06-21T15:49:08.613Z,41.30
2018-06-21T15:51:38.653Z,40.84
2018-06-21T15:54:07.589Z,39.89
2018-06-21T15:56:36.794Z,40.11
2018-06-21T15:59:05.473Z,39.02
2018-06-21T16:01:34.287Z,38.41
2018-06-21T16:04:02.919Z,38.60
2018-06-21T16:06:31.738Z,39.22
2018-06-21T16:09:00.565Z,39.79
2018-06-21T16:11:29.211Z,37.90
2018-06-21T16:13:58.529Z,38.00
2018-06-21T16:16:27.417Z,38.42
2018-06-21T16:18:56.284Z,38.87
2018-06-21T16:21:25.721Z,38.07
2018-06-21T16:23:54.768Z,38.28
2018-06-21T16:26:25.282Z,39.66
2018-06-21T16:28:54.618Z,39.97
2018-06-21T16:31:24.482Z,40.39
2018-06-21T16:33:53.177Z,40.72
2018-06-21T16:36:21.986Z,41.54
2018-06-21T16:38:51.052Z,40.69
2018-06-21T16:41:20.777Z,40.74
2018-06-21T16:43:49.703Z,40.80
2018-06-21T16:46:18.676Z,39.98
2018-06-21T16:48:47.375Z,41.28
2018-06-21T16:51:16.553Z,39.65
2018-06-21T16:53:45.173Z,40.54
2018-06-21T16:56:13.846Z,40.57
2018-06-21T16:58:42.593Z,41.21
2018-06-21T17:01:11.257Z,41.13
2018-06-21T17:03:40.822Z,41.16
2018-06-21T17:06:09.576Z,40.83
2018-06-21T17:08:38.491Z,41.38
2018-06-21T17:11:07.355Z,40.57
2018-06-21T17:13:38.955Z,41.25
2018-06-21T17:16:07.790Z,41.88
2018-06-21T17:18:36.947Z,41.31
2018-06-21T17:21:05.859Z,41.53
2018-06-21T17:23:34.673Z,40.87
2018-06-21T17:26:03.706Z,40.89
2018-06-21T17:28:33.209Z,40.98
2018-06-21T17:31:04.279Z,41.32
2018-06-21T17:33:34.037Z,41.31
2018-06-21T17:36:04.412Z,40.36
2018-06-21T17:38:33.305Z,41.04
2018-06-21T17:41:02.437Z,39.84
2018-06-21T17:43:31.764Z,40.86
2018-06-21T17:46:00.788Z,40.60
2018-06-21T17:48:29.584Z,40.86
2018-06-21T17:50:58.941Z,40.97
2018-06-21T17:53:27.562Z,41.40
2018-06-21T17:55:56.402Z,41.09
2018-06-21T17:58:26.323Z,42.24
2018-06-21T18:00:55.039Z,41.71
2018-06-21T18:03:24.535Z,42.21
2018-06-21T18:05:53.755Z,42.28
2018-06-21T18:08:25.454Z,42.16
2018-06-21T18:10:54.207Z,42.30
2018-06-21T18:13:22.976Z,42.84
2018-06-21T18:15:51.767Z,42.82
2018-06-21T18:18:20.500Z,43.58
2018-06-21T18:20:50.158Z,43.49
2018-06-21T18:23:19.193Z,43.74
2018-06-21T18:25:47.966Z,44.15
2018-06-21T18:28:16.760Z,43.76
2018-06-21T18:30:45.480Z,43.24
2018-06-21T18:33:14.273Z,43.63
2018-06-21T18:35:43.854Z,42.54
2018-06-21T18:38:12.754Z,42.36
2018-06-21T18:40:42.336Z,41.66
2018-06-21T18:43:11.072Z,43.08
2018-06-21T18:45:40.390Z,42.57
2018-06-21T18:48:09.925Z,42.32
2018-06-21T18:50:38.702Z,42.98
2018-06-21T18:53:13.750Z,42.87
2018-06-21T18:55:42.709Z,43.91
2018-06-21T18:58:11.336Z,43.47
2018-06-21T19:00:40.710Z,43.89
2018-06-21T19:03:09.424Z,43.12
2018-06-21T19:05:38.503Z,43.67
2018-06-21T19:08:12.426Z,43.62
2018-06-21T19:10:46.794Z,43.25
2018-06-21T19:13:15.467Z,43.89
2018-06-21T19:15:44.135Z,43.57
2018-06-21T19:18:12.767Z,44.25
2018-06-21T19:20:42.342Z,44.84
2018-06-21T19:23:12.084Z,44.80
2018-06-21T19:25:40.691Z,44.87
2018-06-21T19:28:09.586Z,45.92
2018-06-21T19:30:38.462Z,45.51
2018-06-21T19:33:07.477Z,45.37
2018-06-21T19:35:36.138Z,46.30
2018-06-21T19:38:05.121Z,46.66
2018-06-21T19:40:33.816Z,46.39
2018-06-21T19:43:02.600Z,47.15
2018-06-21T19:45:31.999Z,46.90
2018-06-21T19:48:01.041Z,46.92
2018-06-21T19:50:30.101Z,47.52
2018-06-21T19:52:58.794Z,47.21
2018-06-21T19:55:27.419Z,48.09
2018-06-21T19:57:56.094Z,47.83
2018-06-21T20:00:24.920Z,48.52
2018-06-21T20:03:00.523Z,47.66
2018-06-21T20:05:30.092Z,48.15
2018-06-21T20:07:59.466Z,48.42
2018-06-21T20:10:28.310Z,48.82
2018-06-21T20:12:57.022Z,49.19
2018-06-21T20:15:25.997Z,49.56
2018-06-21T20:17:54.622Z,49.62
2018-06-21T20:20:28.413Z,49.69
2018-06-21T20:22:57.129Z,50.81
2018-06-21T20:25:25.754Z,51.29
2018-06-21T20:27:54.404Z,51.67
2018-06-21T20:30:23.067Z,51.54
2018-06-21T20:32:51.650Z,52.44
2018-06-21T20:35:20.302Z,52.29
2018-06-21T20:37:49.198Z,51.21
2018-06-21T20:40:17.884Z,51.36
2018-06-21T20:42:46.535Z,51.26
2018-06-21T20:45:15.182Z,50.96
2018-06-21T20:47:44.223Z,51.58
2018-06-21T20:50:12.954Z,52.13
2018-06-21T20:52:42.448Z,52.62
2018-06-21T20:55:11.072Z,53.17
2018-06-21T20:57:40.000Z,54.47
2018-06-21T21:00:08.657Z,54.41
2018-06-21T21:02:37.537Z,54.42
2018-06-21T21:05:08.053Z,54.56
2018-06-21T21:07:37.212Z,54.86
2018-06-21T21:10:07.723Z,55.03
2018-06-21T21:12:36.669Z,55.62
2018-06-21T21:15:06.672Z,56.21
2018-06-21T21:17:35.874Z,57.34
2018-06-21T21:20:05.590Z,57.78
2018-06-21T21:22:35.009Z,58.04
2018-06-21T21:25:03.689Z,58.44
2018-06-21T21:27:32.440Z,58.48
2018-06-21T21:30:01.123Z,58.87
2018-06-21T21:32:29.782Z,58.87
2018-06-21T21:34:59.314Z,58.36
2018-06-21T21:37:28.552Z,58.55
2018-06-21T21:40:01.092Z,58.30
2018-06-21T21:42:30.768Z,58.03
2018-06-21T21:44:59.782Z,58.43
2018-06-21T21:47:28.454Z,57.70
2018-06-21T21:49:57.461Z,58.21
2018-06-21T21:52:26.395Z,58.49
2018-06-21T21:54:56.694Z,59.64
2018-06-21T21:57:25.625Z,61.02
2018-06-21T21:59:54.821Z,61.86
2018-06-21T22:02:23.684Z,62.29
2018-06-21T22:04:52.825Z,63.27
2018-06-21T22:07:21.450Z,63.08
2018-06-21T22:09:50.512Z,63.41
2018-06-21T22:12:21.033Z,63.13
2018-06-21T22:14:50.684Z,63.57
2018-06-21T22:17:19.514Z,63.74
2018-06-21T22:19:48.161Z,62.89
2018-06-21T22:22:16.768Z,62.71
2018-06-21T22:24:45.728Z,63.63
2018-06-21T22:27:15.013Z,63.64
2018-06-21T22:29:43.983Z,64.00
2018-06-21T22:32:12.946Z,63.52
2018-06-21T22:34:41.607Z,63.19
2018-06-21T22:37:10.260Z,62.84
2018-06-21T22:39:39.244Z,61.90
2018-06-21T22:42:07.882Z,61.51
2018-06-21T22:44:36.775Z,61.31
2018-06-21T22:47:05.386Z,60.75
2018-06-21T22:49:34.401Z,60.89
2018-06-21T22:52:03.139Z,60.21
2018-06-21T22:54:31.964Z,59.91
2018-06-21T22:57:00.722Z,59.93
2018-06-21T22:59:29.804Z,60.35
2018-06-21T23:01:58.420Z,59.79
2018-06-21T23:04:27.196Z,60.68
2018-06-21T23:06:55.870Z,61.44
2018-06-21T23:09:24.642Z,61.14
2018-06-21T23:11:53.669Z,61.35
2018-06-21T23:14:22.606Z,62.16
2018-06-21T23:16:53.415Z,62.71
2018-06-21T23:19:31.874Z,63.31
2018-06-21T23:22:01.358Z,63.38
2018-06-21T23:24:30.056Z,63.34
2018-06-21T23:26:58.722Z,63.78
2018-06-21T23:29:28.018Z,64.06
2018-06-21T23:31:56.653Z,63.92
2018-06-21T23:34:25.271Z,63.01
2018-06-21T23:36:54.194Z,63.39
2018-06-21T23:39:22.822Z,63.61
2018-06-21T23:41:51.425Z,62.80
2018-06-21T23:44:26.926Z,63.05
2018-06-21T23:46:55.522Z,62.98
2018-06-21T23:49:24.134Z,63.33
2018-06-21T23:51:52.757Z,63.70
2018-06-21T23:54:21.381Z,64.04
2018-06-21T23:56:49.974Z,64.04
2018-06-21T23:59:19.347Z,64.45
